»·PEaware :: SWA1337 KLAX-KLAS

SWA1337 :: KLAX-KLAS

FLIGHT INFORMATION

Flight Status: Arrived
Operator:
Southwest Airlines
More flights by this operator :: More flights under this callsign
Pilot: Adam F. (21125)
Aircraft: BOEING 737-800
(B738)
More flights by this aircraft type
Origin: KLAX Los Angeles Intl
United States
Destination: KLAS McCarran Intl
United States
More flights between these airports :: More routes between these airports
Route: ORCKA3 MISEN KEPEC6
File this flight plan on PilotEdge
Remarks: Fairly New @ IFR
Altitude:
(Current/Filed)
23,000ft
Speed:
(Current/Filed)
325kts
Departed: 27-Nov-18 01:49 PM
Arrived: 27-Nov-18 02:54 PM
Distance/Time
Traveled:
205nm/1:05
Distance/Time
To Go:
Arrived

Flight Plot

Page will automatically refresh every two minutes.

Flight plan parsing failed; only flown route is shown


Map Options




Map Legend


Flown Route
Filed Route
Departure Airport
Arrival Airport
Navaid (VOR, NDB)
Fix

Horizontal Profiles

Position Reports

Time Latitude Longitude Heading Altitude Ground
Speed
27-Nov-18 13:24 33.947888 -118.401106 183 116ft 0kts
27-Nov-18 13:25 33.947888 -118.401106 183 116ft 0kts
27-Nov-18 13:26 33.947888 -118.401106 183 116ft 0kts
27-Nov-18 13:27 33.947888 -118.401106 183 116ft 0kts
27-Nov-18 13:28 33.947888 -118.401106 183 116ft 0kts
27-Nov-18 13:29 33.947888 -118.401106 183 116ft 0kts
27-Nov-18 13:30 33.947888 -118.401106 183 116ft 0kts
27-Nov-18 13:31 33.947888 -118.401106 183 116ft 0kts
27-Nov-18 13:32 33.947888 -118.401106 183 116ft 0kts
27-Nov-18 13:33 33.947888 -118.401106 183 116ft 0kts
27-Nov-18 13:34 33.947888 -118.401106 183 116ft 0kts
27-Nov-18 13:35 33.947888 -118.401106 183 116ft 0kts
27-Nov-18 13:36 33.947888 -118.401106 183 116ft 0kts
27-Nov-18 13:37 33.947888 -118.401106 183 116ft 0kts
27-Nov-18 13:38 33.947888 -118.401106 183 116ft 0kts
27-Nov-18 13:39 33.947888 -118.401106 183 116ft 0kts
27-Nov-18 13:40 33.947888 -118.401106 183 116ft 0kts
27-Nov-18 13:41 33.947888 -118.401106 183 116ft 0kts
27-Nov-18 13:42 33.947888 -118.401106 183 116ft 0kts
27-Nov-18 13:43 33.947888 -118.401106 183 116ft 0kts
27-Nov-18 13:44 33.947888 -118.401106 183 116ft 0kts
27-Nov-18 13:45 33.948320 -118.401136 133 115ft 2kts
27-Nov-18 13:46 33.948373 -118.401395 83 115ft 0kts
27-Nov-18 13:47 33.948373 -118.401395 83 115ft 0kts
27-Nov-18 13:48 33.948373 -118.401395 83 115ft 0kts
27-Nov-18 13:49 33.948939 -118.401057 326 115ft 7kts
27-Nov-18 13:50 33.949225 -118.401420 310 115ft 0kts
27-Nov-18 13:51 33.950044 -118.403165 262 116ft 23kts
27-Nov-18 13:52 33.945090 -118.448330 262 1294ft 175kts
27-Nov-18 13:53 33.939132 -118.508937 263 3858ft 191kts
27-Nov-18 13:54 33.931390 -118.583431 263 5010ft 241kts
27-Nov-18 13:55 33.920426 -118.661342 245 5148ft 238kts
27-Nov-18 13:56 33.865629 -118.703878 183 6897ft 255kts
27-Nov-18 13:57 33.811249 -118.653282 106 9030ft 276kts
27-Nov-18 13:58 33.827865 -118.567234 55 9309ft 272kts
27-Nov-18 13:59 33.873676 -118.495173 43 9161ft 270kts
27-Nov-18 14:00 33.930461 -118.437062 43 9501ft 268kts
27-Nov-18 14:01 33.974424 -118.360082 53 10012ft 293kts
27-Nov-18 14:02 34.014593 -118.288911 53 10601ft 295kts
27-Nov-18 14:03 34.060706 -118.207530 53 12732ft 312kts
27-Nov-18 14:04 34.109097 -118.121926 52 14868ft 324kts
27-Nov-18 14:05 34.159551 -118.032462 52 15012ft 325kts
27-Nov-18 14:06 34.210213 -117.942392 52 15019ft 325kts
27-Nov-18 14:07 34.260247 -117.853213 52 15029ft 325kts
27-Nov-18 14:08 34.309483 -117.765103 50 17352ft 319kts
27-Nov-18 14:09 34.358884 -117.676959 47 19742ft 314kts
27-Nov-18 14:10 34.410346 -117.591658 46 21078ft 343kts
27-Nov-18 14:11 34.467528 -117.495957 47 19911ft 351kts
27-Nov-18 14:12 34.523399 -117.401848 48 18439ft 342kts
27-Nov-18 14:13 34.574056 -117.316259 49 18020ft 327kts
27-Nov-18 14:14 34.629232 -117.223130 48 19539ft 348kts
27-Nov-18 14:15 34.685109 -117.128384 47 21483ft 354kts
27-Nov-18 14:16 34.742547 -117.030773 47 23045ft 366kts
27-Nov-18 14:17 34.800998 -116.931212 47 23053ft 367kts
27-Nov-18 14:18 34.857891 -116.833939 47 23054ft 367kts
27-Nov-18 14:19 34.917221 -116.732268 47 23052ft 372kts
27-Nov-18 14:20 34.975920 -116.628715 50 21011ft 367kts
27-Nov-18 14:21 35.033171 -116.527085 51 18835ft 362kts
27-Nov-18 14:22 35.085675 -116.426907 47 16698ft 347kts
27-Nov-18 14:23 35.149700 -116.344708 43 14566ft 334kts
27-Nov-18 14:24 35.212762 -116.265673 43 13064ft 320kts
27-Nov-18 14:25 35.275416 -116.187007 43 13044ft 323kts
27-Nov-18 14:26 35.338164 -116.108010 43 13044ft 323kts
27-Nov-18 14:27 35.400672 -116.029120 43 13045ft 323kts
27-Nov-18 14:28 35.463166 -115.950055 43 13045ft 323kts
27-Nov-18 14:29 35.525656 -115.870803 43 13047ft 323kts
27-Nov-18 14:30 35.587803 -115.791790 43 13051ft 323kts
27-Nov-18 14:31 35.649662 -115.712953 43 13054ft 323kts
27-Nov-18 14:32 35.711940 -115.633393 43 13056ft 323kts
27-Nov-18 14:33 35.785307 -115.577075 6 13064ft 313kts
27-Nov-18 14:34 35.871555 -115.569413 358 13054ft 310kts
27-Nov-18 14:35 35.954243 -115.547289 31 12878ft 324kts
27-Nov-18 14:36 36.004521 -115.458843 67 12003ft 318kts
27-Nov-18 14:37 36.029556 -115.359174 91 11041ft 292kts
27-Nov-18 14:38 36.022920 -115.259757 95 9960ft 297kts
27-Nov-18 14:39 36.015819 -115.161811 94 9037ft 267kts
27-Nov-18 14:40 36.009839 -115.074370 93 8330ft 250kts
27-Nov-18 14:41 36.004798 -114.990002 92 8031ft 245kts
27-Nov-18 14:42 35.999795 -114.906225 92 8026ft 244kts
27-Nov-18 14:43 35.994751 -114.823002 92 8028ft 244kts
27-Nov-18 14:44 35.989397 -114.741529 92 7939ft 225kts
27-Nov-18 14:45 35.984834 -114.673538 92 7960ft 192kts
27-Nov-18 14:46 35.996113 -114.613566 32 7966ft 183kts
27-Nov-18 14:47 36.044255 -114.603051 342 7977ft 182kts
27-Nov-18 14:48 36.076527 -114.647213 279 7835ft 189kts
27-Nov-18 14:49 36.073219 -114.711351 271 7012ft 187kts
27-Nov-18 14:50 36.073610 -114.775068 272 6004ft 186kts
27-Nov-18 14:51 36.073614 -114.838888 272 5037ft 183kts
27-Nov-18 14:52 36.073687 -114.902339 272 4921ft 186kts
27-Nov-18 14:53 36.073683 -114.965676 272 4259ft 185kts
27-Nov-18 14:54 36.073862 -115.029018 271 3692ft 184kts
27-Nov-18 14:55 36.073753 -115.089299 270 2761ft 178kts
27-Nov-18 14:56 36.073740 -115.138264 268 2080ft 65kts
27-Nov-18 14:57 36.074492 -115.145414 299 2102ft 0kts
27-Nov-18 14:58 36.076838 -115.146584 359 2103ft 13kts
27-Nov-18 14:59 36.079710 -115.145178 34 2092ft 16kts

Navigation Log

Ident Type
Flight plan parsing failed, navigation log unavailable